createdAt,value
2022-08-26T00:00:27.214Z,11.70
2022-08-26T00:01:29.689Z,11.50
2022-08-26T00:02:27.210Z,11.50
2022-08-26T00:03:27.169Z,12.20
2022-08-26T00:04:27.174Z,12.30
2022-08-26T00:05:27.135Z,11.30
2022-08-26T00:06:27.099Z,11.50
2022-08-26T00:07:27.158Z,11.70
2022-08-26T00:08:27.141Z,11.50
2022-08-26T00:09:27.072Z,10.80
2022-08-26T00:10:27.094Z,11.90
2022-08-26T00:11:27.273Z,11.70
2022-08-26T00:12:35.946Z,11.30
2022-08-26T00:13:27.049Z,12.30
2022-08-26T00:14:31.224Z,11.80
2022-08-26T00:15:27.007Z,12.40
2022-08-26T00:16:27.022Z,11.60
2022-08-26T00:17:27.012Z,11.80
2022-08-26T00:18:26.948Z,11.00
2022-08-26T00:19:26.959Z,11.30
2022-08-26T00:20:26.941Z,11.50
2022-08-26T00:21:26.944Z,10.90
2022-08-26T00:22:26.900Z,11.00
2022-08-26T00:23:26.896Z,11.20
2022-08-26T00:24:26.914Z,11.20
2022-08-26T00:25:26.838Z,11.70
2022-08-26T00:26:28.487Z,11.00
2022-08-26T00:27:26.829Z,11.10
2022-08-26T00:28:26.840Z,11.30
2022-08-26T00:29:26.787Z,11.50
2022-08-26T00:30:26.805Z,11.20
2022-08-26T00:31:26.844Z,11.30
2022-08-26T00:32:26.771Z,10.90
2022-08-26T00:33:26.751Z,11.50
2022-08-26T00:34:26.726Z,12.10
2022-08-26T00:35:27.980Z,11.50
2022-08-26T00:36:29.653Z,11.20
2022-08-26T00:37:26.680Z,11.00
2022-08-26T00:38:26.684Z,10.80
2022-08-26T00:39:26.664Z,10.40
2022-08-26T00:40:26.703Z,11.10
2022-08-26T00:41:26.672Z,10.50
2022-08-26T00:42:26.704Z,10.70
2022-08-26T00:43:26.642Z,10.50
2022-08-26T00:44:26.638Z,10.20
2022-08-26T00:45:26.620Z,11.00
2022-08-26T00:46:26.583Z,11.00
2022-08-26T00:47:26.632Z,11.70
2022-08-26T00:48:26.587Z,10.80
2022-08-26T00:49:26.557Z,10.30
2022-08-26T00:50:26.542Z,10.40
2022-08-26T00:51:29.665Z,11.40
2022-08-26T00:52:26.505Z,11.90
2022-08-26T00:53:27.962Z,10.20
2022-08-26T00:54:26.787Z,10.40
2022-08-26T00:55:34.472Z,10.20
2022-08-26T00:56:26.468Z,10.40
2022-08-26T00:57:26.435Z,10.10
2022-08-26T00:58:26.417Z,10.80
2022-08-26T00:59:26.391Z,10.30
2022-08-26T01:00:26.376Z,11.00
2022-08-26T01:01:26.384Z,10.20
2022-08-26T01:02:26.412Z,10.20
2022-08-26T01:03:26.361Z,9.90
2022-08-26T01:04:26.313Z,10.60
2022-08-26T01:05:26.323Z,10.60
2022-08-26T01:06:26.280Z,10.50
2022-08-26T01:07:26.330Z,10.10
2022-08-26T01:08:26.260Z,9.90
2022-08-26T01:09:26.282Z,9.90
2022-08-26T01:10:26.246Z,9.70
2022-08-26T01:11:26.245Z,10.60
2022-08-26T01:12:26.239Z,10.30
2022-08-26T01:13:26.231Z,10.10
2022-08-26T01:14:26.183Z,10.60
2022-08-26T01:15:26.191Z,10.10
2022-08-26T01:16:26.256Z,9.50
2022-08-26T01:17:26.146Z,10.20
2022-08-26T01:18:26.169Z,10.00
2022-08-26T01:19:26.111Z,9.90
2022-08-26T01:20:26.113Z,10.00
2022-08-26T01:21:26.135Z,9.70
2022-08-26T01:22:28.123Z,10.00
2022-08-26T01:23:26.081Z,9.70
2022-08-26T01:24:26.046Z,10.20
2022-08-26T01:25:26.093Z,10.60
2022-08-26T01:26:26.055Z,10.00
2022-08-26T01:27:26.061Z,10.50
2022-08-26T01:28:26.040Z,10.40
2022-08-26T01:29:26.046Z,9.70
2022-08-26T01:30:25.980Z,10.20
2022-08-26T01:31:26.082Z,10.20
2022-08-26T01:32:25.953Z,9.90
2022-08-26T01:33:25.947Z,10.00
2022-08-26T01:34:25.948Z,9.60
2022-08-26T01:35:25.909Z,10.10
2022-08-26T01:36:25.928Z,10.50
2022-08-26T01:37:25.869Z,10.10
2022-08-26T01:38:25.880Z,9.60
2022-08-26T01:39:25.846Z,10.60
2022-08-26T01:40:25.867Z,10.60
2022-08-26T01:41:27.502Z,10.20
2022-08-26T01:42:25.858Z,10.10
2022-08-26T01:43:25.810Z,10.10
2022-08-26T01:44:25.803Z,10.70
2022-08-26T01:45:25.852Z,10.10
2022-08-26T01:46:25.774Z,10.50
2022-08-26T01:47:25.783Z,11.10
2022-08-26T01:48:25.750Z,11.00
2022-08-26T01:49:26.048Z,10.50
2022-08-26T01:50:28.106Z,11.40
2022-08-26T01:51:25.790Z,10.60
2022-08-26T01:52:27.631Z,10.90
2022-08-26T01:53:25.647Z,10.90
2022-08-26T01:54:25.671Z,10.30
2022-08-26T01:55:32.884Z,10.30
2022-08-26T01:56:25.640Z,10.50
2022-08-26T01:57:25.672Z,10.20
2022-08-26T01:58:25.636Z,10.40
2022-08-26T01:59:25.604Z,10.80
2022-08-26T02:00:25.594Z,10.50
2022-08-26T02:01:29.211Z,10.70
2022-08-26T02:02:25.563Z,10.80
2022-08-26T02:03:25.584Z,10.60
2022-08-26T02:04:25.561Z,10.90
2022-08-26T02:05:25.489Z,10.70
2022-08-26T02:06:25.477Z,10.30
2022-08-26T02:07:26.779Z,10.60
2022-08-26T02:08:25.531Z,11.60
2022-08-26T02:09:25.457Z,10.80
2022-08-26T02:10:25.447Z,11.30
2022-08-26T02:11:25.424Z,11.60
2022-08-26T02:12:25.419Z,10.20
2022-08-26T02:13:25.394Z,11.00
2022-08-26T02:14:26.860Z,11.80
2022-08-26T02:15:25.386Z,10.70
2022-08-26T02:16:25.407Z,10.40
2022-08-26T02:17:25.374Z,11.40
2022-08-26T02:18:25.332Z,10.90
2022-08-26T02:19:25.321Z,10.80
2022-08-26T02:20:26.534Z,10.50
2022-08-26T02:21:25.300Z,10.60
2022-08-26T02:22:25.269Z,11.00
2022-08-26T02:23:25.275Z,11.60
2022-08-26T02:24:27.233Z,10.90
2022-08-26T02:25:25.232Z,10.90
2022-08-26T02:26:25.250Z,11.50
2022-08-26T02:27:25.202Z,11.10
2022-08-26T02:28:26.614Z,11.20
2022-08-26T02:29:25.193Z,11.60
2022-08-26T02:30:25.156Z,11.40
2022-08-26T02:31:25.194Z,11.20
2022-08-26T02:32:25.149Z,11.80
2022-08-26T02:33:25.157Z,11.30
2022-08-26T02:34:25.112Z,11.80
2022-08-26T02:35:25.100Z,11.30
2022-08-26T02:36:25.084Z,11.20
2022-08-26T02:37:25.067Z,11.00
2022-08-26T02:38:25.081Z,11.50
2022-08-26T02:39:25.061Z,11.50
2022-08-26T02:40:25.141Z,11.80
2022-08-26T02:41:25.058Z,11.20
2022-08-26T02:42:25.046Z,11.20
2022-08-26T02:43:31.766Z,10.90
2022-08-26T02:44:25.002Z,11.30
2022-08-26T02:45:24.969Z,12.40
2022-08-26T02:46:27.840Z,11.40
2022-08-26T02:47:25.005Z,11.30
2022-08-26T02:48:24.943Z,11.60
2022-08-26T02:49:24.924Z,11.00
2022-08-26T02:50:24.907Z,11.10
2022-08-26T02:51:24.903Z,10.40
2022-08-26T02:52:24.931Z,10.90
2022-08-26T02:53:25.516Z,10.20
2022-08-26T02:54:24.862Z,11.40
2022-08-26T02:55:24.901Z,11.30
2022-08-26T02:56:24.828Z,12.10
2022-08-26T02:57:24.814Z,11.60
2022-08-26T02:58:24.819Z,11.20
2022-08-26T02:59:24.795Z,11.20
2022-08-26T03:00:24.831Z,11.00
2022-08-26T03:01:24.890Z,11.20
2022-08-26T03:02:24.829Z,12.20
2022-08-26T03:03:24.717Z,11.70
2022-08-26T03:04:25.923Z,12.10
2022-08-26T03:05:24.716Z,11.10
2022-08-26T03:06:24.706Z,11.10
2022-08-26T03:07:24.702Z,11.10
2022-08-26T03:08:24.673Z,11.80
2022-08-26T03:09:24.640Z,11.70
2022-08-26T03:10:24.629Z,12.20
2022-08-26T03:11:25.137Z,11.80
2022-08-26T03:12:25.603Z,12.10
2022-08-26T03:13:24.650Z,12.20
2022-08-26T03:14:24.605Z,11.10
2022-08-26T03:15:24.563Z,11.90
2022-08-26T03:16:24.619Z,11.70
2022-08-26T03:17:24.574Z,11.10
2022-08-26T03:18:24.582Z,11.30
2022-08-26T03:19:24.543Z,11.30
2022-08-26T03:20:24.502Z,11.10
2022-08-26T03:21:24.515Z,11.20
2022-08-26T03:22:24.485Z,11.70
2022-08-26T03:23:24.497Z,11.50
2022-08-26T03:24:24.490Z,12.10
2022-08-26T03:25:24.419Z,12.00
2022-08-26T03:26:24.447Z,12.40
2022-08-26T03:27:24.416Z,12.20
2022-08-26T03:28:24.433Z,13.20
2022-08-26T03:29:24.395Z,12.60
2022-08-26T03:30:24.407Z,12.70
2022-08-26T03:31:24.724Z,12.80
2022-08-26T03:32:24.344Z,13.90
2022-08-26T03:33:24.351Z,16.00
2022-08-26T03:34:24.299Z,16.80
2022-08-26T03:35:24.281Z,17.70
2022-08-26T03:36:24.295Z,15.20
2022-08-26T03:37:24.266Z,15.00
2022-08-26T03:38:24.254Z,13.70
2022-08-26T03:39:24.227Z,13.10
2022-08-26T03:40:24.307Z,12.90
2022-08-26T03:41:24.210Z,13.00
2022-08-26T03:42:24.206Z,12.40
2022-08-26T03:43:24.225Z,13.50
2022-08-26T03:44:24.164Z,13.50
2022-08-26T03:45:24.196Z,14.50
2022-08-26T03:46:24.201Z,13.00
2022-08-26T03:47:24.121Z,13.50
2022-08-26T03:48:24.122Z,13.00
2022-08-26T03:49:24.159Z,12.60
2022-08-26T03:50:24.334Z,13.50
2022-08-26T03:51:24.322Z,12.40
2022-08-26T03:52:24.064Z,13.50
2022-08-26T03:53:24.060Z,12.90
2022-08-26T03:54:24.127Z,12.90
2022-08-26T03:55:24.051Z,12.60
2022-08-26T03:56:24.051Z,13.10
2022-08-26T03:57:24.027Z,13.70
2022-08-26T03:58:23.980Z,13.80
2022-08-26T03:59:23.978Z,14.10
2022-08-26T04:00:24.004Z,13.50
2022-08-26T04:01:24.043Z,13.30
2022-08-26T04:02:24.019Z,14.20
2022-08-26T04:03:24.006Z,13.30
2022-08-26T04:04:24.550Z,14.60
2022-08-26T04:05:23.881Z,12.80
2022-08-26T04:06:23.913Z,14.40
2022-08-26T04:07:23.855Z,13.30
2022-08-26T04:08:23.877Z,13.50
2022-08-26T04:09:23.828Z,13.70
2022-08-26T04:10:28.648Z,14.50
2022-08-26T04:11:23.823Z,14.20
2022-08-26T04:12:23.840Z,14.00
2022-08-26T04:13:23.832Z,14.00
2022-08-26T04:14:23.815Z,14.20
2022-08-26T04:15:23.742Z,14.90
2022-08-26T04:16:23.839Z,13.80
2022-08-26T04:17:25.084Z,13.30
2022-08-26T04:18:23.720Z,13.60
2022-08-26T04:19:23.726Z,18.10
2022-08-26T04:20:23.861Z,15.40
2022-08-26T04:21:23.703Z,15.00
2022-08-26T04:22:24.235Z,13.70
2022-08-26T04:23:23.650Z,14.10
2022-08-26T04:24:23.851Z,14.30
2022-08-26T04:25:24.161Z,14.00
2022-08-26T04:26:23.637Z,14.40
2022-08-26T04:27:23.612Z,15.60
2022-08-26T04:28:23.577Z,14.50
2022-08-26T04:29:23.590Z,14.90
2022-08-26T04:30:23.543Z,13.20
2022-08-26T04:31:23.617Z,13.70
2022-08-26T04:32:23.548Z,13.30
2022-08-26T04:33:32.227Z,13.00
2022-08-26T04:34:23.523Z,13.00
2022-08-26T04:35:26.015Z,13.30
2022-08-26T04:36:23.491Z,13.30
2022-08-26T04:37:23.455Z,12.60
2022-08-26T04:38:23.447Z,13.30
2022-08-26T04:39:23.458Z,13.90
2022-08-26T04:40:23.496Z,13.00
2022-08-26T04:41:23.410Z,12.50
2022-08-26T04:42:26.052Z,11.40
2022-08-26T04:43:23.396Z,12.70
2022-08-26T04:44:23.368Z,12.70
2022-08-26T04:45:23.358Z,11.70
2022-08-26T04:46:23.391Z,13.70
2022-08-26T04:47:23.320Z,12.70
2022-08-26T04:48:23.307Z,12.80
2022-08-26T04:49:23.299Z,12.90
2022-08-26T04:50:23.301Z,12.50
2022-08-26T04:51:23.272Z,13.30
2022-08-26T04:52:23.249Z,13.80
2022-08-26T04:53:23.248Z,12.50
2022-08-26T04:54:23.232Z,12.90
2022-08-26T04:55:25.230Z,13.30
2022-08-26T04:56:23.235Z,13.30
2022-08-26T04:57:23.202Z,12.30
2022-08-26T04:58:23.179Z,13.40
2022-08-26T04:59:23.149Z,12.80
2022-08-26T05:00:23.148Z,13.10
2022-08-26T05:01:23.873Z,13.10
2022-08-26T05:02:23.145Z,13.30
2022-08-26T05:03:23.101Z,12.70
2022-08-26T05:04:23.148Z,12.60
2022-08-26T05:05:23.088Z,12.50
2022-08-26T05:06:23.100Z,12.60
2022-08-26T05:07:23.065Z,12.10
2022-08-26T05:08:23.039Z,13.40
2022-08-26T05:09:23.049Z,12.40
2022-08-26T05:10:23.011Z,13.40
2022-08-26T05:11:23.024Z,12.80
2022-08-26T05:12:23.016Z,12.90
2022-08-26T05:13:22.978Z,13.20
2022-08-26T05:14:22.979Z,12.20
2022-08-26T05:15:22.984Z,12.60
2022-08-26T05:16:22.995Z,12.50
2022-08-26T05:17:22.946Z,12.40
2022-08-26T05:18:22.946Z,12.80
2022-08-26T05:19:22.882Z,12.90
2022-08-26T05:20:26.174Z,12.60
2022-08-26T05:21:22.857Z,12.90
2022-08-26T05:22:22.859Z,12.90
2022-08-26T05:23:23.014Z,13.20
2022-08-26T05:24:22.857Z,13.70
2022-08-26T05:25:22.820Z,13.10
2022-08-26T05:26:23.192Z,12.40
2022-08-26T05:27:22.807Z,13.00
2022-08-26T05:28:22.784Z,12.30
2022-08-26T05:29:22.748Z,13.20
2022-08-26T05:30:22.757Z,13.20
2022-08-26T05:31:22.796Z,12.30
2022-08-26T05:32:22.734Z,13.10
2022-08-26T05:33:22.700Z,12.60
2022-08-26T05:34:22.715Z,12.40
2022-08-26T05:35:22.695Z,13.10
2022-08-26T05:36:22.675Z,12.80
2022-08-26T05:37:22.669Z,12.40
2022-08-26T05:38:22.630Z,11.80
2022-08-26T05:39:22.631Z,11.50
2022-08-26T05:40:22.739Z,11.60
2022-08-26T05:41:22.609Z,12.90
2022-08-26T05:42:22.612Z,11.70
2022-08-26T05:43:22.586Z,12.00
2022-08-26T05:44:22.591Z,12.20
2022-08-26T05:45:22.578Z,11.50
2022-08-26T05:46:22.578Z,12.30
2022-08-26T05:47:22.518Z,12.10
2022-08-26T05:48:22.625Z,12.00
2022-08-26T05:49:22.605Z,11.20
2022-08-26T05:50:22.879Z,12.10
2022-08-26T05:51:25.842Z,12.20
2022-08-26T05:52:24.694Z,11.60
2022-08-26T05:53:22.436Z,12.00
2022-08-26T05:54:22.582Z,11.70
2022-08-26T05:55:22.433Z,11.70
2022-08-26T05:56:22.424Z,12.40
2022-08-26T05:57:23.160Z,11.30
2022-08-26T05:58:22.380Z,12.00
2022-08-26T05:59:24.474Z,12.00
2022-08-26T06:00:22.353Z,12.40
2022-08-26T06:01:22.414Z,12.40
2022-08-26T06:02:22.375Z,12.60
2022-08-26T06:03:22.330Z,12.70
2022-08-26T06:04:22.307Z,12.20
2022-08-26T06:05:22.273Z,13.30
2022-08-26T06:06:27.363Z,12.90
2022-08-26T06:07:22.304Z,12.70
2022-08-26T06:08:22.251Z,12.40
2022-08-26T06:09:22.252Z,12.10
2022-08-26T06:10:32.217Z,12.00
2022-08-26T06:11:22.230Z,11.90
2022-08-26T06:12:22.224Z,12.70
2022-08-26T06:13:22.229Z,12.10
2022-08-26T06:14:22.225Z,13.10
2022-08-26T06:15:22.194Z,11.40
2022-08-26T06:16:22.245Z,12.10
2022-08-26T06:17:22.155Z,11.60
2022-08-26T06:18:22.120Z,12.40
2022-08-26T06:19:22.190Z,12.10
2022-08-26T06:20:22.092Z,11.60
2022-08-26T06:21:22.081Z,11.70
2022-08-26T06:22:23.738Z,11.20
2022-08-26T06:23:22.058Z,11.70
2022-08-26T06:24:22.023Z,11.80
2022-08-26T06:25:22.042Z,11.30
2022-08-26T06:26:22.008Z,11.90
2022-08-26T06:27:22.011Z,11.50
2022-08-26T06:28:21.967Z,11.50
2022-08-26T06:29:24.798Z,11.50
2022-08-26T06:30:21.973Z,11.10
2022-08-26T06:31:22.017Z,10.90
2022-08-26T06:32:21.986Z,10.40
2022-08-26T06:33:21.908Z,11.00
2022-08-26T06:34:21.889Z,10.30
2022-08-26T06:35:21.898Z,11.20
2022-08-26T06:36:21.921Z,9.90
2022-08-26T06:37:21.878Z,10.00
2022-08-26T06:38:21.847Z,10.30
2022-08-26T06:39:21.838Z,9.70
2022-08-26T06:40:21.852Z,10.10
2022-08-26T06:41:21.819Z,10.10
2022-08-26T06:42:21.816Z,10.10
2022-08-26T06:43:21.789Z,11.30
2022-08-26T06:44:21.789Z,9.90
2022-08-26T06:45:21.785Z,9.60
2022-08-26T06:46:21.821Z,9.90
2022-08-26T06:47:21.760Z,9.50
2022-08-26T06:48:21.718Z,10.10
2022-08-26T06:49:26.593Z,9.80
2022-08-26T06:50:21.703Z,9.20
2022-08-26T06:51:22.302Z,8.70
2022-08-26T06:52:24.358Z,8.60
2022-08-26T06:53:21.658Z,9.20
2022-08-26T06:54:21.639Z,8.80
2022-08-26T06:55:21.621Z,8.60
2022-08-26T06:56:21.606Z,9.40
2022-08-26T06:57:21.662Z,9.00
2022-08-26T06:58:21.588Z,10.10
2022-08-26T06:59:21.587Z,9.10
2022-08-26T07:00:21.553Z,8.90
2022-08-26T07:01:21.565Z,9.30
2022-08-26T07:02:21.585Z,8.50
2022-08-26T07:03:21.541Z,9.10
2022-08-26T07:04:22.423Z,8.80
2022-08-26T07:05:21.547Z,8.10
2022-08-26T07:06:21.463Z,7.90
2022-08-26T07:07:21.994Z,8.50
2022-08-26T07:08:21.450Z,8.40
2022-08-26T07:09:21.509Z,9.00
2022-08-26T07:10:21.407Z,9.00
2022-08-26T07:11:21.428Z,8.70
2022-08-26T07:12:21.408Z,8.30
2022-08-26T07:13:30.580Z,9.10
2022-08-26T07:14:21.985Z,9.00
2022-08-26T07:15:27.116Z,8.90
2022-08-26T07:16:21.368Z,8.60
2022-08-26T07:17:21.320Z,7.70
2022-08-26T07:18:22.953Z,8.20
2022-08-26T07:19:30.104Z,8.00
2022-08-26T07:20:21.317Z,8.80
2022-08-26T07:21:21.315Z,7.70
2022-08-26T07:22:21.280Z,8.30
2022-08-26T07:23:21.279Z,8.10
2022-08-26T07:24:21.268Z,8.90
2022-08-26T07:25:21.210Z,7.70
2022-08-26T07:26:21.203Z,7.90
2022-08-26T07:27:21.207Z,8.50
2022-08-26T07:28:21.187Z,8.70
2022-08-26T07:29:21.180Z,7.90
2022-08-26T07:30:21.153Z,8.90
2022-08-26T07:31:21.290Z,8.40
2022-08-26T07:32:22.834Z,8.50
2022-08-26T07:33:21.122Z,8.80
2022-08-26T07:34:21.090Z,8.60
2022-08-26T07:35:21.109Z,10.40
2022-08-26T07:36:21.081Z,9.40
2022-08-26T07:37:21.096Z,7.80
2022-08-26T07:38:21.067Z,7.90
2022-08-26T07:39:21.087Z,8.70
2022-08-26T07:40:21.094Z,7.70
2022-08-26T07:41:21.037Z,8.00
2022-08-26T07:42:21.106Z,9.40
2022-08-26T07:43:20.998Z,8.20
2022-08-26T07:44:20.992Z,7.70
2022-08-26T07:45:20.973Z,8.20
2022-08-26T07:46:27.538Z,8.00
2022-08-26T07:47:26.136Z,7.80
2022-08-26T07:48:21.451Z,7.30
2022-08-26T07:49:21.065Z,8.50
2022-08-26T07:50:20.912Z,7.90
2022-08-26T07:51:20.875Z,8.60
2022-08-26T07:52:25.914Z,7.00
2022-08-26T07:53:20.873Z,8.50
2022-08-26T07:54:20.832Z,8.30
2022-08-26T07:55:20.821Z,7.40
2022-08-26T07:56:20.822Z,7.60
2022-08-26T07:57:20.819Z,7.00
2022-08-26T07:58:20.775Z,7.90
2022-08-26T07:59:20.797Z,7.60
2022-08-26T08:00:20.825Z,6.80
2022-08-26T08:01:20.850Z,6.50
2022-08-26T08:02:20.789Z,6.70
2022-08-26T08:03:20.779Z,6.70
2022-08-26T08:04:26.244Z,7.20
2022-08-26T08:05:20.695Z,6.10
2022-08-26T08:06:20.693Z,6.90
2022-08-26T08:07:20.692Z,7.40
2022-08-26T08:08:26.648Z,6.80
2022-08-26T08:09:20.684Z,7.50
2022-08-26T08:10:20.823Z,7.70
2022-08-26T08:11:20.621Z,6.80
2022-08-26T08:12:20.664Z,6.40
2022-08-26T08:13:20.586Z,6.80
2022-08-26T08:14:22.134Z,7.10
2022-08-26T08:15:20.624Z,6.70
2022-08-26T08:16:20.634Z,6.30
2022-08-26T08:17:20.570Z,7.80
2022-08-26T08:18:20.755Z,7.30
2022-08-26T08:19:20.513Z,6.50
2022-08-26T08:20:20.532Z,7.30
2022-08-26T08:21:21.610Z,5.90
2022-08-26T08:22:20.499Z,6.90
2022-08-26T08:23:20.487Z,6.60
2022-08-26T08:24:20.456Z,6.60
2022-08-26T08:25:20.457Z,7.20
2022-08-26T08:26:20.430Z,6.90
2022-08-26T08:27:23.859Z,7.20
2022-08-26T08:28:20.417Z,6.00
2022-08-26T08:29:20.401Z,7.20
2022-08-26T08:30:22.721Z,6.60
2022-08-26T08:31:33.250Z,7.10
2022-08-26T08:32:20.339Z,7.00
2022-08-26T08:33:20.340Z,6.30
2022-08-26T08:34:21.594Z,7.20
2022-08-26T08:35:20.317Z,6.80
2022-08-26T08:36:20.463Z,7.00
2022-08-26T08:37:20.273Z,6.30
2022-08-26T08:38:20.268Z,6.80
2022-08-26T08:39:20.284Z,6.50
2022-08-26T08:40:20.435Z,6.30
2022-08-26T08:41:20.254Z,6.00
2022-08-26T08:42:20.225Z,6.20
2022-08-26T08:43:20.228Z,6.10
2022-08-26T08:44:20.241Z,6.40
2022-08-26T08:45:20.183Z,6.20
2022-08-26T08:46:20.202Z,6.60
2022-08-26T08:47:20.146Z,6.40
2022-08-26T08:48:20.153Z,6.20
2022-08-26T08:49:20.154Z,6.30
2022-08-26T08:50:20.124Z,6.20
2022-08-26T08:51:20.094Z,5.60
2022-08-26T08:52:20.089Z,5.50
2022-08-26T08:53:20.088Z,5.90
2022-08-26T08:54:20.070Z,5.70
2022-08-26T08:55:20.039Z,5.90
2022-08-26T08:56:20.044Z,5.70
2022-08-26T08:57:20.045Z,6.30
2022-08-26T08:58:20.010Z,6.30
2022-08-26T08:59:20.008Z,6.50
2022-08-26T09:00:19.994Z,5.30
2022-08-26T09:01:20.018Z,5.50
2022-08-26T09:02:20.002Z,6.10
2022-08-26T09:03:19.961Z,5.50
2022-08-26T09:04:19.967Z,5.60
2022-08-26T09:05:19.936Z,5.80
2022-08-26T09:06:19.893Z,6.20
2022-08-26T09:07:19.886Z,6.10
2022-08-26T09:08:20.066Z,5.90
2022-08-26T09:09:19.888Z,5.30
2022-08-26T09:10:19.865Z,5.90
2022-08-26T09:11:19.854Z,5.80
2022-08-26T09:12:19.822Z,4.90
2022-08-26T09:13:26.104Z,5.10
2022-08-26T09:14:19.837Z,5.70
2022-08-26T09:15:19.782Z,6.00
2022-08-26T09:16:20.427Z,5.80
2022-08-26T09:17:19.788Z,5.70
2022-08-26T09:18:19.743Z,5.60
2022-08-26T09:19:19.784Z,5.60
2022-08-26T09:20:19.768Z,5.70
2022-08-26T09:21:19.751Z,6.30
2022-08-26T09:22:19.738Z,5.80
2022-08-26T09:23:19.704Z,6.10
2022-08-26T09:24:19.684Z,6.10
2022-08-26T09:25:19.692Z,5.80
2022-08-26T09:26:19.703Z,5.30
2022-08-26T09:27:19.649Z,5.90
2022-08-26T09:28:19.653Z,6.10
2022-08-26T09:30:19.613Z,6.20
2022-08-26T09:31:19.694Z,6.00
2022-08-26T09:32:19.570Z,6.20
2022-08-26T09:33:19.641Z,4.90
2022-08-26T09:34:19.586Z,5.70
2022-08-26T09:35:19.562Z,6.00
2022-08-26T09:36:19.549Z,6.00
2022-08-26T09:37:19.515Z,5.80
2022-08-26T09:38:19.514Z,5.50
2022-08-26T09:39:19.518Z,6.40
2022-08-26T09:40:19.542Z,5.90
2022-08-26T09:41:19.468Z,5.90
2022-08-26T09:42:19.430Z,5.30
2022-08-26T09:43:22.305Z,5.40
2022-08-26T09:44:19.405Z,6.20
2022-08-26T09:45:19.440Z,6.20
2022-08-26T09:46:19.523Z,6.20
2022-08-26T09:47:19.403Z,5.80
2022-08-26T09:48:19.371Z,6.60
2022-08-26T09:49:19.352Z,6.10
2022-08-26T09:50:19.348Z,6.00
2022-08-26T09:51:19.318Z,6.00
2022-08-26T09:52:19.315Z,6.10
2022-08-26T09:53:20.942Z,6.40
2022-08-26T09:54:20.724Z,5.80
2022-08-26T09:55:19.620Z,5.50
2022-08-26T09:56:19.264Z,5.40
2022-08-26T09:57:19.247Z,5.90
2022-08-26T09:58:19.251Z,6.10
2022-08-26T09:59:19.224Z,6.50
2022-08-26T10:00:19.213Z,7.10
2022-08-26T10:01:19.552Z,6.40
2022-08-26T10:02:19.222Z,5.60
2022-08-26T10:03:19.182Z,6.20
2022-08-26T10:04:19.208Z,6.10
2022-08-26T10:05:19.159Z,5.40
2022-08-26T10:06:21.003Z,5.60
2022-08-26T10:07:19.133Z,6.00
2022-08-26T10:08:19.116Z,5.60
2022-08-26T10:09:19.129Z,5.90
2022-08-26T10:10:19.102Z,5.70
2022-08-26T10:11:19.058Z,5.70
2022-08-26T10:12:19.121Z,5.90
2022-08-26T10:13:19.060Z,6.40
2022-08-26T10:14:19.033Z,6.00
2022-08-26T10:15:19.079Z,6.00
2022-08-26T10:16:19.085Z,6.10
2022-08-26T10:17:18.989Z,6.00
2022-08-26T10:18:19.022Z,6.80
2022-08-26T10:19:18.997Z,5.60
2022-08-26T10:20:23.119Z,6.50
2022-08-26T10:21:18.957Z,5.20
2022-08-26T10:22:18.951Z,6.10
2022-08-26T10:23:18.928Z,5.80
2022-08-26T10:24:18.911Z,6.60
2022-08-26T10:25:18.886Z,5.60
2022-08-26T10:26:18.897Z,5.40
2022-08-26T10:27:18.884Z,6.30
2022-08-26T10:28:18.929Z,6.00
2022-08-26T10:29:18.884Z,5.90
2022-08-26T10:30:18.871Z,6.00
2022-08-26T10:31:19.830Z,5.50
2022-08-26T10:32:18.874Z,6.20
2022-08-26T10:33:18.792Z,7.00
2022-08-26T10:34:18.784Z,6.30
2022-08-26T10:35:18.802Z,6.00
2022-08-26T10:36:20.313Z,6.50
2022-08-26T10:37:18.748Z,6.40
2022-08-26T10:38:18.744Z,6.10
2022-08-26T10:39:18.725Z,6.40
2022-08-26T10:40:18.805Z,5.80
2022-08-26T10:41:18.741Z,6.80
2022-08-26T10:42:18.701Z,5.80
2022-08-26T10:43:18.691Z,6.20
2022-08-26T10:44:18.684Z,6.30
2022-08-26T10:45:18.685Z,5.50
2022-08-26T10:46:18.688Z,5.40
2022-08-26T10:47:18.656Z,6.60
2022-08-26T10:48:18.638Z,6.50
2022-08-26T10:49:18.604Z,6.30
2022-08-26T10:50:18.944Z,5.70
2022-08-26T10:51:18.602Z,5.90
2022-08-26T10:52:18.569Z,6.60
2022-08-26T10:53:18.579Z,6.20
2022-08-26T10:54:18.570Z,6.10
2022-08-26T10:55:18.558Z,5.90
2022-08-26T10:56:19.117Z,6.10
2022-08-26T10:57:18.523Z,6.80
2022-08-26T10:58:26.227Z,6.90
2022-08-26T10:59:18.499Z,5.20
2022-08-26T11:00:18.470Z,6.60
2022-08-26T11:01:22.926Z,5.50
2022-08-26T11:02:22.750Z,6.60
2022-08-26T11:03:22.428Z,5.90
2022-08-26T11:04:18.496Z,6.90
2022-08-26T11:05:18.400Z,6.90
2022-08-26T11:06:18.428Z,6.30
2022-08-26T11:07:18.453Z,6.40
2022-08-26T11:08:18.388Z,5.90
2022-08-26T11:09:18.359Z,6.50
2022-08-26T11:10:18.404Z,6.10
2022-08-26T11:11:18.360Z,7.10
2022-08-26T11:12:18.371Z,6.50
2022-08-26T11:13:18.336Z,7.10
2022-08-26T11:14:18.352Z,7.10
2022-08-26T11:15:18.304Z,6.90
2022-08-26T11:16:18.359Z,7.00
2022-08-26T11:17:18.307Z,6.30
2022-08-26T11:18:18.289Z,12.40
2022-08-26T11:19:18.241Z,19.10
2022-08-26T11:20:18.286Z,9.30
2022-08-26T11:21:18.215Z,6.00
2022-08-26T11:22:18.195Z,7.10
2022-08-26T11:23:18.177Z,6.00
2022-08-26T11:24:18.185Z,6.30
2022-08-26T11:25:18.400Z,6.40
2022-08-26T11:26:35.403Z,7.30
2022-08-26T11:27:18.142Z,7.80
2022-08-26T11:28:18.126Z,8.10
2022-08-26T11:29:18.121Z,8.60
2022-08-26T11:30:18.516Z,7.80
2022-08-26T11:31:18.116Z,8.70
2022-08-26T11:32:18.055Z,10.10
2022-08-26T11:33:18.080Z,10.20
2022-08-26T11:34:18.026Z,11.60
2022-08-26T11:35:18.028Z,11.90
2022-08-26T11:36:18.019Z,11.40
2022-08-26T11:37:17.979Z,10.90
2022-08-26T11:38:17.975Z,12.00
2022-08-26T11:39:17.958Z,11.80
2022-08-26T11:40:18.006Z,8.50
2022-08-26T11:41:17.957Z,1.30
2022-08-26T11:42:20.313Z,0.20
2022-08-26T11:43:17.902Z,0.20
2022-08-26T11:44:17.912Z,0.00
2022-08-26T11:45:17.896Z,0.20
2022-08-26T11:46:17.950Z,0.50
2022-08-26T11:47:17.874Z,0.00
2022-08-26T11:48:17.842Z,1.10
2022-08-26T11:49:17.895Z,0.10
2022-08-26T11:50:17.869Z,0.10
2022-08-26T11:51:17.804Z,0.00
2022-08-26T11:52:17.807Z,0.00
2022-08-26T11:53:17.776Z,0.00
2022-08-26T11:54:17.763Z,0.40
2022-08-26T11:55:17.763Z,0.00
2022-08-26T11:56:17.748Z,0.00
2022-08-26T11:57:17.736Z,0.00
2022-08-26T11:58:17.722Z,0.00
2022-08-26T11:59:17.698Z,0.00
2022-08-26T12:00:22.549Z,0.00
2022-08-26T12:01:17.688Z,0.00
2022-08-26T12:02:17.774Z,0.00
2022-08-26T12:03:17.688Z,0.00
2022-08-26T12:04:17.709Z,0.10
2022-08-26T12:05:17.603Z,0.00
2022-08-26T12:06:17.690Z,0.00
2022-08-26T12:07:18.580Z,0.00
2022-08-26T12:08:17.590Z,0.00
2022-08-26T12:09:17.556Z,0.00
2022-08-26T12:10:17.603Z,0.00
2022-08-26T12:11:17.542Z,0.00
2022-08-26T12:12:17.564Z,0.00
2022-08-26T12:13:17.547Z,0.10
2022-08-26T12:14:17.508Z,0.00
2022-08-26T12:15:17.492Z,0.00
2022-08-26T12:16:17.540Z,0.30
2022-08-26T12:17:17.474Z,1.00
2022-08-26T12:18:17.461Z,0.00
2022-08-26T12:19:17.438Z,1.50
2022-08-26T12:20:17.439Z,0.60
2022-08-26T12:21:17.435Z,0.40
2022-08-26T12:22:17.390Z,0.00
2022-08-26T12:23:17.404Z,0.00
2022-08-26T12:24:17.381Z,0.10
2022-08-26T12:31:18.097Z,0.30
2022-08-26T12:32:18.947Z,0.20
2022-08-26T12:33:22.686Z,0.00
2022-08-26T12:34:18.982Z,0.40
2022-08-26T12:35:18.926Z,0.00
2022-08-26T12:36:18.918Z,1.50
2022-08-26T12:37:19.091Z,0.00
2022-08-26T12:38:18.867Z,0.60
2022-08-26T12:39:18.869Z,0.10
2022-08-26T12:40:18.887Z,0.50
2022-08-26T12:41:18.857Z,0.00
2022-08-26T12:42:18.841Z,0.20
2022-08-26T12:43:18.813Z,0.10
2022-08-26T12:44:18.817Z,0.10
2022-08-26T12:45:18.780Z,0.30
2022-08-26T12:46:18.779Z,0.00
2022-08-26T12:47:25.792Z,0.00
2022-08-26T12:48:18.754Z,0.00
2022-08-26T12:49:18.733Z,0.00
2022-08-26T12:50:18.763Z,0.00
2022-08-26T12:51:18.742Z,0.00
2022-08-26T12:52:18.685Z,0.10
2022-08-26T12:53:18.710Z,0.00
2022-08-26T12:54:18.676Z,0.90
2022-08-26T12:55:18.687Z,0.00
2022-08-26T12:56:18.661Z,0.40
2022-08-26T12:57:18.619Z,0.00
2022-08-26T12:58:18.623Z,0.00
2022-08-26T12:59:18.613Z,0.00
2022-08-26T13:00:18.880Z,0.00
2022-08-26T13:01:18.664Z,0.20
2022-08-26T13:02:18.630Z,0.00
2022-08-26T13:03:18.778Z,0.00
2022-08-26T13:04:18.541Z,1.00
2022-08-26T13:05:18.578Z,0.00
2022-08-26T13:06:18.526Z,0.00
2022-08-26T13:07:18.519Z,0.00
2022-08-26T13:08:18.469Z,0.00
2022-08-26T13:09:18.458Z,0.00
2022-08-26T13:10:18.474Z,0.00
2022-08-26T13:11:18.454Z,0.00
2022-08-26T13:12:18.432Z,1.10